Time;durP1;ratioP1;P1;durP2;ratioP2;P2;SDS_P1;SDS_P2;PMS_P1;PMS_P2;Temp;Humidity;BMP_temperature;BMP_pressure;BME280_temperature;BME280_humidity;BME280_pressure;Samples;Min_cycle;Max_cycle;Signal;HPM_P1;HPM_P2
2023/11/24 00:01:42;;;;;;;4.50;1.05;;;8.90;1.00;;;;;;5009456;28;20827;-68
2023/11/24 00:04:07;;;;;;;4.20;0.80;;;9.00;1.00;;;;;;5009852;28;20719;-69
2023/11/24 00:06:33;;;;;;;3.88;0.70;;;9.00;1.00;;;;;;5010437;28;20948;-67
2023/11/24 00:08:59;;;;;;;3.50;0.43;;;9.10;1.00;;;;;;5000322;28;20758;-66
2023/11/24 00:11:26;;;;;;;4.40;0.80;;;9.10;99.90;;;;;;5012091;28;20419;-67
2023/11/24 00:13:52;;;;;;;4.72;0.70;;;9.10;99.90;;;;;;5012888;28;20444;-68
2023/11/24 00:16:18;;;;;;;3.70;0.40;;;8.90;99.90;;;;;;4996790;28;20430;-67
2023/11/24 00:18:44;;;;;;;3.50;0.40;;;8.80;99.90;;;;;;4997387;28;20398;-68
2023/11/24 00:21:10;;;;;;;4.80;0.70;;;8.80;99.90;;;;;;5008738;28;20407;-68
2023/11/24 00:23:38;;;;;;;3.50;0.40;;;8.70;99.90;;;;;;5010252;28;20898;-68
2023/11/24 00:26:07;;;;;;;3.70;0.55;;;8.70;99.90;;;;;;5011379;28;20412;-68
2023/11/24 00:28:36;;;;;;;3.40;0.40;;;8.70;99.90;;;;;;4996245;28;20389;-68
2023/11/24 00:31:03;;;;;;;3.60;0.40;;;8.70;99.90;;;;;;4996178;28;20537;-68
2023/11/24 00:33:29;;;;;;;3.90;0.40;;;8.70;99.90;;;;;;4996358;28;20382;-68
2023/11/24 00:35:55;;;;;;;5.10;0.80;;;8.60;99.90;;;;;;4996791;28;20421;-68
2023/11/24 00:38:20;;;;;;;5.97;0.90;;;8.60;99.90;;;;;;4999323;28;20869;-68
2023/11/24 00:40:46;;;;;;;3.70;0.50;;;8.50;99.90;;;;;;5015786;28;20428;-68
2023/11/24 00:43:11;;;;;;;3.70;0.50;;;8.50;99.90;;;;;;5015564;28;20400;-68
2023/11/24 00:45:37;;;;;;;3.70;0.30;;;8.60;99.90;;;;;;5013946;28;20399;-68
2023/11/24 00:48:06;;;;;;;3.60;0.52;;;8.50;99.90;;;;;;5013703;28;20913;-68
2023/11/24 00:50:32;;;;;;;4.50;0.90;;;8.60;99.90;;;;;;4996356;28;20386;-68
2023/11/24 00:52:59;;;;;;;3.50;0.40;;;8.60;99.90;;;;;;4996145;28;20497;-68
2023/11/24 00:55:26;;;;;;;4.07;0.60;;;8.60;99.90;;;;;;5014798;28;20396;-68
2023/11/24 00:57:52;;;;;;;3.58;0.40;;;8.60;99.90;;;;;;5009151;28;20945;-68
2023/11/24 01:00:17;;;;;;;4.13;0.50;;;8.50;99.90;;;;;;5016038;28;20416;-68
2023/11/24 01:02:43;;;;;;;3.70;0.40;;;8.60;99.90;;;;;;5015017;28;20392;-68
2023/11/24 01:05:09;;;;;;;3.50;0.47;;;8.80;1.00;;;;;;5009772;28;20425;-68
2023/11/24 01:07:35;;;;;;;6.78;0.52;;;8.80;1.00;;;;;;5004036;28;20849;-68
2023/11/24 01:10:01;;;;;;;3.70;0.50;;;8.90;1.00;;;;;;4996484;28;20409;-68
2023/11/24 01:12:26;;;;;;;3.70;0.50;;;8.90;1.00;;;;;;5000459;28;20389;-68
2023/11/24 01:14:52;;;;;;;3.85;0.47;;;9.10;99.90;;;;;;5013573;28;20381;-68
2023/11/24 01:17:18;;;;;;;3.40;0.30;;;9.40;99.90;;;;;;5003721;28;20759;-68
2023/11/24 01:19:44;;;;;;;3.20;0.20;;;9.50;1.00;;;;;;5012137;28;20424;-68
2023/11/24 01:22:09;;;;;;;3.83;0.60;;;9.60;1.00;;;;;;4994519;28;20413;-68
2023/11/24 01:24:35;;;;;;;3.30;0.30;;;9.60;1.00;;;;;;4996534;28;20401;-68
2023/11/24 01:27:03;;;;;;;4.03;0.60;;;9.70;1.00;;;;;;5009783;28;20895;-68
2023/11/24 01:29:28;;;;;;;3.30;0.20;;;9.70;1.00;;;;;;5010698;28;20855;-68
2023/11/24 01:31:54;;;;;;;3.60;0.30;;;9.80;1.00;;;;;;5012525;28;20385;-66
2023/11/24 01:34:20;;;;;;;3.53;0.43;;;9.80;1.00;;;;;;5012388;28;20381;-68
2023/11/24 01:36:45;;;;;;;3.53;0.37;;;9.80;1.00;;;;;;5012510;28;20381;-68
2023/11/24 01:39:12;;;;;;;3.50;0.40;;;9.80;1.00;;;;;;5011950;28;20432;-68
2023/11/24 01:41:40;;;;;;;3.40;0.20;;;9.80;1.00;;;;;;5007778;28;20993;-68
2023/11/24 01:44:07;;;;;;;3.50;0.40;;;9.80;1.00;;;;;;4992290;28;20414;-68
2023/11/24 01:46:33;;;;;;;3.60;0.40;;;9.90;1.00;;;;;;4992349;28;20399;-68
2023/11/24 01:48:59;;;;;;;3.40;0.20;;;9.90;1.00;;;;;;4992509;28;20489;-68
2023/11/24 01:51:25;;;;;;;3.40;0.30;;;9.80;1.00;;;;;;4992387;28;20951;-68
2023/11/24 01:53:52;;;;;;;3.90;0.50;;;9.80;1.00;;;;;;4992131;28;20398;-68
2023/11/24 01:56:19;;;;;;;3.40;0.30;;;9.80;1.00;;;;;;4996254;28;20394;-68
2023/11/24 01:58:44;;;;;;;4.00;0.55;;;9.70;1.00;;;;;;4991979;28;20406;-68
2023/11/24 02:01:10;;;;;;;3.40;0.30;;;9.70;1.00;;;;;;4992136;28;20841;-68
2023/11/24 02:03:36;;;;;;;3.50;0.40;;;9.70;1.00;;;;;;4995707;28;20749;-68
2023/11/24 02:06:02;;;;;;;3.80;0.60;;;9.60;1.00;;;;;;4992119;28;20418;-68
2023/11/24 02:08:28;;;;;;;3.53;0.30;;;9.70;41.00;;;;;;4991893;28;20403;-68
2023/11/24 02:10:55;;;;;;;3.50;0.30;;;9.70;99.90;;;;;;4991950;28;20409;-68
2023/11/24 02:13:26;;;;;;;4.00;0.60;;;9.70;99.90;;;;;;4995017;28;20883;-68
2023/11/24 02:15:53;;;;;;;3.50;0.30;;;9.70;99.90;;;;;;4991975;28;20398;-68
2023/11/24 02:18:19;;;;;;;3.60;0.40;;;9.70;99.90;;;;;;4992050;28;20387;-68
2023/11/24 02:20:45;;;;;;;4.07;0.70;;;9.50;1.00;;;;;;4992077;28;20426;-68
2023/11/24 02:23:11;;;;;;;5.45;0.70;;;9.50;1.00;;;;;;4991686;28;20395;-68
2023/11/24 02:25:37;;;;;;;3.50;0.40;;;9.50;1.00;;;;;;4991878;28;20391;-68
2023/11/24 02:28:03;;;;;;;3.53;0.50;;;9.50;1.00;;;;;;5005788;28;20889;-68
2023/11/24 02:30:28;;;;;;;3.50;0.40;;;9.60;1.00;;;;;;4998694;28;20386;-68
2023/11/24 02:32:54;;;;;;;5.00;0.40;;;9.50;1.00;;;;;;5011088;28;20404;-68
2023/11/24 02:35:21;;;;;;;3.47;0.30;;;9.50;1.00;;;;;;5002102;28;20441;-68
2023/11/24 02:37:46;;;;;;;3.80;0.60;;;9.50;1.00;;;;;;4991853;28;20395;-68
2023/11/24 02:40:12;;;;;;;3.40;0.30;;;9.60;1.00;;;;;;4989854;28;20785;-68
2023/11/24 02:42:39;;;;;;;3.40;0.30;;;9.60;1.00;;;;;;4994472;28;20406;-68
2023/11/24 02:45:06;;;;;;;3.30;0.20;;;9.60;1.00;;;;;;4991259;28;20482;-68
2023/11/24 02:47:31;;;;;;;4.18;0.57;;;9.50;1.00;;;;;;4991058;28;21037;-68
2023/11/24 02:49:57;;;;;;;3.70;0.40;;;9.60;1.00;;;;;;4990943;28;20394;-68
2023/11/24 02:52:23;;;;;;;3.60;0.47;;;9.60;1.00;;;;;;4991289;28;20418;-68
2023/11/24 02:54:48;;;;;;;3.40;0.30;;;9.60;1.00;;;;;;4991055;28;20401;-68
2023/11/24 02:57:14;;;;;;;3.40;0.40;;;9.50;66.80;;;;;;5004897;28;20405;-68
2023/11/24 02:59:40;;;;;;;3.60;0.40;;;9.40;99.90;;;;;;5010525;28;20424;-68
2023/11/24 03:02:06;;;;;;;3.30;0.22;;;9.30;1.00;;;;;;5010713;28;20393;-68
2023/11/24 03:04:32;;;;;;;3.40;0.30;;;9.30;1.00;;;;;;5010520;28;20404;-68
2023/11/24 03:06:58;;;;;;;3.70;0.30;;;9.20;1.00;;;;;;5010749;28;20396;-68
2023/11/24 03:09:25;;;;;;;3.50;0.32;;;9.30;99.90;;;;;;5009889;28;20408;-68
2023/11/24 03:11:52;;;;;;;4.20;0.27;;;9.40;99.90;;;;;;5010398;28;20481;-68
2023/11/24 03:14:21;;;;;;;3.80;0.40;;;9.30;99.90;;;;;;5008839;28;20405;-68
2023/11/24 03:16:47;;;;;;;3.30;0.20;;;9.40;1.00;;;;;;4992791;28;20836;-68
2023/11/24 03:19:13;;;;;;;3.40;0.30;;;9.50;1.00;;;;;;4990453;28;20513;-68
2023/11/24 03:21:38;;;;;;;3.50;0.50;;;9.60;1.00;;;;;;4990451;28;20477;-68
2023/11/24 03:24:04;;;;;;;3.30;0.22;;;9.60;99.90;;;;;;4990217;28;20397;-68
2023/11/24 03:26:30;;;;;;;3.90;0.50;;;9.60;99.90;;;;;;4989410;28;20462;-68
2023/11/24 03:28:55;;;;;;;3.67;0.57;;;9.70;99.90;;;;;;4992670;28;20430;-68
2023/11/24 03:31:21;;;;;;;4.10;0.20;;;9.70;99.90;;;;;;4987645;28;20419;-68
2023/11/24 03:33:46;;;;;;;3.30;0.27;;;9.70;99.90;;;;;;4988120;28;20896;-68
2023/11/24 03:36:12;;;;;;;3.40;0.20;;;9.70;99.90;;;;;;4989660;28;20453;-67
2023/11/24 03:38:38;;;;;;;3.60;0.30;;;9.70;99.90;;;;;;4989071;28;20444;-66
2023/11/24 03:41:03;;;;;;;3.53;0.30;;;9.80;4.50;;;;;;4989040;28;20844;-66
2023/11/24 03:43:29;;;;;;;3.40;0.30;;;9.80;1.00;;;;;;4989425;28;20394;-66
2023/11/24 03:45:56;;;;;;;3.30;0.20;;;9.80;1.00;;;;;;4990802;28;20881;-66
2023/11/24 03:48:21;;;;;;;3.40;0.30;;;9.90;1.00;;;;;;4990691;28;20400;-66
2023/11/24 03:50:53;;;;;;;3.40;0.30;;;9.80;1.00;;;;;;4992563;28;20395;-66
2023/11/24 03:53:19;;;;;;;4.00;0.33;;;9.70;1.00;;;;;;4989468;28;20537;-66
2023/11/24 03:55:47;;;;;;;3.50;0.30;;;9.80;1.00;;;;;;4989965;28;20481;-66
2023/11/24 03:58:13;;;;;;;3.70;0.40;;;9.80;1.00;;;;;;4987264;28;20401;-66
2023/11/24 04:00:39;;;;;;;3.40;0.20;;;9.90;1.00;;;;;;4989401;28;20768;-66
2023/11/24 04:03:04;;;;;;;3.90;0.50;;;9.90;1.00;;;;;;4989471;28;20753;-66
2023/11/24 04:05:31;;;;;;;3.40;0.20;;;9.80;1.00;;;;;;4989213;28;20473;-66
2023/11/24 04:07:56;;;;;;;3.40;0.30;;;9.90;1.00;;;;;;4989102;28;20422;-66
2023/11/24 04:10:22;;;;;;;3.40;0.20;;;9.80;1.00;;;;;;4989333;28;20425;-66
2023/11/24 04:12:48;;;;;;;3.40;0.20;;;9.90;1.00;;;;;;4990111;28;20386;-66
2023/11/24 04:15:14;;;;;;;3.47;0.30;;;9.90;1.00;;;;;;4989237;28;20399;-66
2023/11/24 04:17:39;;;;;;;3.40;0.20;;;9.90;1.00;;;;;;4989466;28;20468;-66
2023/11/24 04:20:08;;;;;;;3.70;0.30;;;9.90;1.00;;;;;;4988982;28;20422;-66
2023/11/24 04:22:34;;;;;;;3.40;0.22;;;10.00;1.00;;;;;;4986444;28;20401;-66
2023/11/24 04:24:59;;;;;;;3.40;0.20;;;10.00;1.00;;;;;;4990511;28;20399;-66
2023/11/24 04:27:25;;;;;;;3.70;0.30;;;9.80;1.00;;;;;;4993194;28;20402;-68
2023/11/24 04:29:50;;;;;;;3.70;0.40;;;9.80;1.00;;;;;;4989238;28;20386;-66
2023/11/24 04:32:17;;;;;;;3.40;0.20;;;9.80;1.00;;;;;;4999060;28;20818;-66
2023/11/24 04:34:43;;;;;;;3.50;0.40;;;9.70;1.00;;;;;;4995830;28;20533;-65
2023/11/24 04:37:08;;;;;;;3.40;0.20;;;9.70;1.00;;;;;;5002263;28;20908;-66
2023/11/24 04:39:34;;;;;;;5.40;0.40;;;9.60;19.80;;;;;;4998220;28;20858;-68
2023/11/24 04:41:59;;;;;;;3.70;0.40;;;9.00;1.00;;;;;;4988846;28;20516;-68
2023/11/24 04:44:25;;;;;;;3.50;0.30;;;8.50;1.00;;;;;;4995080;28;20405;-68
2023/11/24 04:46:50;;;;;;;6.80;0.50;;;8.30;1.00;;;;;;4989653;28;20469;-68
2023/11/24 04:49:17;;;;;;;5.97;0.73;;;8.00;99.90;;;;;;4984732;28;20407;-68
2023/11/24 04:51:43;;;;;;;4.18;0.70;;;7.90;99.90;;;;;;4973925;28;20467;-68
2023/11/24 04:54:11;;;;;;;4.10;1.00;;;8.00;99.90;;;;;;4984580;28;20411;-68
2023/11/24 04:56:37;;;;;;;5.13;0.60;;;8.00;99.90;;;;;;5004388;28;20458;-68
2023/11/24 04:59:02;;;;;;;3.80;0.50;;;7.90;1.00;;;;;;4995046;28;20409;-68
2023/11/24 05:01:28;;;;;;;3.50;0.50;;;7.90;1.00;;;;;;4977624;28;20423;-68
2023/11/24 05:03:55;;;;;;;6.50;0.67;;;7.70;1.00;;;;;;4977979;28;20506;-68
2023/11/24 05:06:21;;;;;;;3.90;0.40;;;7.70;1.00;;;;;;4972712;28;20404;-68
2023/11/24 05:08:47;;;;;;;3.90;0.50;;;7.80;1.00;;;;;;4980962;28;20425;-68
2023/11/24 05:11:13;;;;;;;3.60;0.50;;;7.80;1.00;;;;;;4996292;28;20759;-67
2023/11/24 05:13:38;;;;;;;7.50;1.50;;;7.80;1.00;;;;;;4973724;28;20412;-67
2023/11/24 05:16:05;;;;;;;3.90;0.60;;;7.70;1.00;;;;;;4988420;28;20976;-68
2023/11/24 05:18:31;;;;;;;5.53;0.70;;;7.70;1.00;;;;;;4984789;28;20448;-68
2023/11/24 05:20:56;;;;;;;4.00;0.50;;;7.80;1.00;;;;;;4982924;28;20560;-68
2023/11/24 05:23:22;;;;;;;3.80;0.67;;;7.80;1.00;;;;;;4980545;28;20754;-68
2023/11/24 05:25:47;;;;;;;4.70;0.80;;;7.80;1.00;;;;;;4975535;28;20428;-68
2023/11/24 05:28:13;;;;;;;3.57;0.40;;;7.80;99.90;;;;;;4985289;28;20932;-68
2023/11/24 05:30:39;;;;;;;4.85;0.88;;;7.80;1.00;;;;;;4979567;28;20463;-68
2023/11/24 05:33:05;;;;;;;3.80;0.60;;;7.90;99.90;;;;;;4983731;28;20475;-68
2023/11/24 05:35:31;;;;;;;6.00;0.80;;;7.80;99.90;;;;;;5009975;28;20416;-68
2023/11/24 05:37:56;;;;;;;4.60;0.90;;;7.80;99.90;;;;;;5004006;28;20483;-68
2023/11/24 05:40:23;;;;;;;6.20;1.10;;;7.70;99.90;;;;;;5010577;28;20449;-68
2023/11/24 05:42:48;;;;;;;7.35;1.05;;;7.50;99.90;;;;;;4994424;28;20409;-68
2023/11/24 05:45:14;;;;;;;4.50;1.00;;;7.60;1.00;;;;;;4995759;28;20481;-68
2023/11/24 05:47:41;;;;;;;3.90;0.70;;;7.60;1.00;;;;;;5006111;28;20400;-68
2023/11/24 05:50:07;;;;;;;8.00;1.10;;;7.40;1.00;;;;;;5010440;28;20413;-68
2023/11/24 05:52:36;;;;;;;4.40;0.60;;;7.30;1.00;;;;;;4992014;28;20474;-68
2023/11/24 05:55:02;;;;;;;3.50;0.50;;;7.20;1.00;;;;;;4992519;28;20392;-68
2023/11/24 05:57:28;;;;;;;10.00;0.80;;;7.20;1.00;;;;;;4991785;28;20487;-68
2023/11/24 05:59:54;;;;;;;4.13;0.77;;;7.10;1.00;;;;;;4990058;28;20418;-68
2023/11/24 06:02:21;;;;;;;7.27;1.20;;;7.10;40.00;;;;;;4990726;28;20387;-67
2023/11/24 06:04:47;;;;;;;4.00;0.60;;;7.10;99.90;;;;;;5009647;28;20505;-68
2023/11/24 06:07:14;;;;;;;9.57;1.10;;;7.00;99.90;;;;;;5009317;28;20388;-68
2023/11/24 06:09:40;;;;;;;4.00;0.80;;;7.10;99.90;;;;;;5006247;28;20463;-68
2023/11/24 06:12:06;;;;;;;6.50;0.80;;;7.00;22.60;;;;;;4997786;28;20401;-68
2023/11/24 06:14:32;;;;;;;7.35;0.68;;;7.00;12.90;;;;;;5011511;28;20381;-68
2023/11/24 06:16:57;;;;;;;3.30;0.38;;;6.90;1.00;;;;;;5010689;28;20400;-68
2023/11/24 06:19:23;;;;;;;3.60;0.50;;;7.00;37.80;;;;;;5011186;28;20424;-68
2023/11/24 06:21:48;;;;;;;5.25;1.05;;;7.00;1.00;;;;;;5011459;28;20377;-68
2023/11/24 06:24:14;;;;;;;3.93;0.60;;;7.20;99.90;;;;;;5009495;28;20569;-68
2023/11/24 06:26:40;;;;;;;5.65;0.90;;;7.30;99.90;;;;;;5011358;28;20725;-68
2023/11/24 06:29:05;;;;;;;7.00;0.83;;;7.60;99.90;;;;;;5011378;28;20479;-67
2023/11/24 06:31:31;;;;;;;6.47;0.85;;;7.70;1.00;;;;;;5011552;28;20512;-67
2023/11/24 06:33:56;;;;;;;3.60;0.67;;;7.70;1.00;;;;;;5011108;28;20446;-67
2023/11/24 06:36:22;;;;;;;10.90;1.50;;;7.70;1.00;;;;;;5010583;28;20941;-67
2023/11/24 06:38:48;;;;;;;5.40;0.70;;;7.80;1.00;;;;;;5011423;28;20389;-68
2023/11/24 06:41:13;;;;;;;4.70;0.90;;;7.80;1.00;;;;;;5011291;28;20420;-68
2023/11/24 06:43:39;;;;;;;4.10;0.50;;;7.90;1.00;;;;;;5010758;28;20585;-68
2023/11/24 06:46:05;;;;;;;4.30;1.00;;;7.90;1.00;;;;;;5011080;28;20389;-68
2023/11/24 06:48:32;;;;;;;3.70;0.70;;;8.00;1.00;;;;;;5010967;28;20439;-67
2023/11/24 06:50:58;;;;;;;4.80;0.90;;;8.10;1.00;;;;;;5010522;28;20400;-67
2023/11/24 06:53:24;;;;;;;4.90;0.70;;;8.10;1.00;;;;;;5010814;28;20906;-67
2023/11/24 06:55:49;;;;;;;7.60;0.90;;;8.10;1.00;;;;;;5011638;28;20385;-67
2023/11/24 06:58:15;;;;;;;4.90;0.90;;;8.10;1.00;;;;;;5011311;28;20397;-67
2023/11/24 07:00:40;;;;;;;5.20;0.70;;;8.10;1.00;;;;;;5010875;28;20443;-68
2023/11/24 07:03:06;;;;;;;3.70;0.60;;;8.00;1.00;;;;;;5010554;28;20875;-68
2023/11/24 07:05:32;;;;;;;4.90;0.73;;;7.90;1.00;;;;;;4986038;28;20476;-68
2023/11/24 07:07:57;;;;;;;5.07;0.70;;;7.90;1.00;;;;;;4986962;28;20441;-67
2023/11/24 07:10:26;;;;;;;6.90;0.73;;;7.90;1.00;;;;;;4993677;28;20394;-67
2023/11/24 07:12:52;;;;;;;3.95;0.77;;;8.10;1.00;;;;;;4989984;28;20398;-68
2023/11/24 07:15:18;;;;;;;6.43;0.82;;;8.20;1.00;;;;;;4990238;28;21088;-68
2023/11/24 07:17:44;;;;;;;5.50;0.57;;;8.10;1.00;;;;;;4990600;28;20398;-67
2023/11/24 07:20:11;;;;;;;9.90;0.98;;;7.80;1.00;;;;;;4990515;28;21051;-67
2023/11/24 07:22:38;;;;;;;5.00;1.30;;;7.80;1.00;;;;;;4990545;28;20399;-67
2023/11/24 07:25:04;;;;;;;11.30;0.80;;;7.80;1.00;;;;;;4990923;28;20398;-67
2023/11/24 07:27:30;;;;;;;4.10;0.63;;;7.80;1.00;;;;;;4990578;28;20390;-67
2023/11/24 07:29:55;;;;;;;3.50;0.40;;;7.80;1.00;;;;;;4990481;28;20916;-67
2023/11/24 07:32:24;;;;;;;6.90;0.80;;;7.70;1.00;;;;;;4990668;28;20741;-67
2023/11/24 07:34:50;;;;;;;6.53;1.20;;;7.80;1.00;;;;;;4989743;28;20485;-68
2023/11/24 07:37:16;;;;;;;7.60;1.63;;;7.80;1.00;;;;;;4991068;28;20482;-67
2023/11/24 07:39:41;;;;;;;4.80;0.80;;;7.90;1.00;;;;;;4990387;28;20419;-67
2023/11/24 07:42:07;;;;;;;4.60;0.70;;;7.90;1.00;;;;;;4990402;28;20422;-67
2023/11/24 07:44:33;;;;;;;5.80;0.90;;;8.10;1.00;;;;;;4990216;28;20395;-67
2023/11/24 07:46:59;;;;;;;6.10;1.52;;;8.10;1.00;;;;;;4990660;28;20470;-67
2023/11/24 07:49:25;;;;;;;8.25;1.20;;;8.20;1.00;;;;;;4989839;28;20402;-68
2023/11/24 07:51:51;;;;;;;6.15;0.90;;;8.20;1.00;;;;;;4990563;28;20397;-67
2023/11/24 07:54:17;;;;;;;6.30;0.90;;;8.10;1.00;;;;;;4990807;28;20387;-68
2023/11/24 07:56:43;;;;;;;6.32;1.42;;;8.10;1.00;;;;;;4990478;28;20390;-68
2023/11/24 07:59:11;;;;;;;5.43;1.20;;;7.80;8.30;;;;;;4990073;28;20433;-68
2023/11/24 08:01:38;;;;;;;4.60;0.98;;;7.90;86.20;;;;;;4990163;28;20936;-68
2023/11/24 08:04:04;;;;;;;4.00;0.90;;;7.90;99.90;;;;;;4989520;28;20483;-68
2023/11/24 08:06:30;;;;;;;5.10;0.98;;;8.00;99.90;;;;;;4990184;28;20482;-68
2023/11/24 08:08:56;;;;;;;3.85;0.70;;;8.10;99.90;;;;;;4990195;28;20472;-68
2023/11/24 08:11:23;;;;;;;4.90;1.27;;;8.20;99.90;;;;;;4990010;28;20401;-68
2023/11/24 08:13:49;;;;;;;10.30;0.80;;;8.30;99.90;;;;;;4990594;28;20387;-67
2023/11/24 08:16:14;;;;;;;4.40;1.00;;;8.40;99.90;;;;;;4990116;28;20764;-67
2023/11/24 08:18:40;;;;;;;6.53;0.75;;;8.50;14.60;;;;;;4989708;28;20395;-67
2023/11/24 08:21:06;;;;;;;5.60;1.00;;;8.40;10.20;;;;;;4989979;28;20912;-67
2023/11/24 08:23:31;;;;;;;4.60;1.30;;;8.40;57.70;;;;;;4990022;28;20390;-67
2023/11/24 08:25:57;;;;;;;7.60;1.10;;;8.40;98.30;;;;;;4990348;28;20399;-67
2023/11/24 08:28:22;;;;;;;8.70;1.60;;;8.40;99.90;;;;;;4994153;28;20810;-67
2023/11/24 08:30:49;;;;;;;6.57;1.17;;;8.30;93.10;;;;;;4994340;28;20406;-67
2023/11/24 08:33:15;;;;;;;3.72;0.90;;;8.30;99.90;;;;;;4993270;28;20387;-67
2023/11/24 08:35:40;;;;;;;7.72;0.80;;;8.20;99.90;;;;;;4993651;28;20437;-67
2023/11/24 08:38:06;;;;;;;6.50;0.90;;;8.20;99.90;;;;;;4994185;28;20437;-67
2023/11/24 08:40:32;;;;;;;4.60;0.90;;;8.30;99.90;;;;;;4993597;28;20422;-67
2023/11/24 08:42:57;;;;;;;4.47;1.02;;;8.30;99.90;;;;;;4993606;28;20930;-68
2023/11/24 08:45:24;;;;;;;3.93;0.70;;;8.30;99.90;;;;;;4993734;28;20395;-68
2023/11/24 08:47:50;;;;;;;4.85;1.35;;;8.30;99.90;;;;;;4993264;28;20391;-67
2023/11/24 08:50:17;;;;;;;4.00;0.83;;;8.20;99.90;;;;;;4994065;28;20409;-68
2023/11/24 08:52:47;;;;;;;3.70;0.68;;;8.20;99.90;;;;;;4993827;28;20387;-68
2023/11/24 08:55:13;;;;;;;5.68;0.90;;;8.20;99.90;;;;;;4993478;28;20399;-68
2023/11/24 08:57:38;;;;;;;4.80;0.90;;;8.20;1.00;;;;;;4993662;28;20394;-68
2023/11/24 09:00:06;;;;;;;3.80;0.80;;;8.20;1.00;;;;;;4993497;28;20510;-68
2023/11/24 09:02:32;;;;;;;7.53;0.80;;;8.30;1.00;;;;;;4993160;28;20479;-68
2023/11/24 09:04:57;;;;;;;3.53;0.60;;;8.40;1.00;;;;;;4993382;28;20421;-69
2023/11/24 09:07:23;;;;;;;4.80;0.83;;;8.50;99.90;;;;;;4993352;28;20422;-69
2023/11/24 09:09:49;;;;;;;4.70;0.70;;;8.40;99.90;;;;;;4993229;28;20425;-68
2023/11/24 09:12:16;;;;;;;4.50;0.90;;;8.30;99.90;;;;;;4993594;28;20426;-69
2023/11/24 09:14:41;;;;;;;5.00;1.08;;;8.10;99.90;;;;;;4993243;28;20448;-69
2023/11/24 09:17:07;;;;;;;4.10;1.00;;;8.00;99.90;;;;;;4992553;28;20402;-69
2023/11/24 09:19:33;;;;;;;6.78;1.00;;;8.00;99.90;;;;;;4992676;28;20532;-69
2023/11/24 09:22:00;;;;;;;8.33;1.00;;;8.00;99.90;;;;;;4993168;28;20390;-69
2023/11/24 09:24:26;;;;;;;7.60;0.90;;;8.10;99.90;;;;;;4992866;28;20480;-69
2023/11/24 09:26:53;;;;;;;4.13;0.90;;;8.10;99.90;;;;;;4992903;28;20739;-69
2023/11/24 09:29:19;;;;;;;5.20;0.82;;;8.00;99.90;;;;;;4993357;28;20398;-69
2023/11/24 09:31:45;;;;;;;7.40;0.70;;;7.90;99.90;;;;;;4992887;28;20403;-69
2023/11/24 09:34:11;;;;;;;8.90;0.70;;;7.90;99.90;;;;;;4992998;28;20772;-69
2023/11/24 09:36:41;;;;;;;7.27;0.50;;;7.80;99.90;;;;;;4992929;28;20422;-69
2023/11/24 09:39:07;;;;;;;6.93;1.23;;;7.80;99.90;;;;;;4991477;28;20469;-69
2023/11/24 09:41:39;;;;;;;5.53;1.00;;;7.80;99.90;;;;;;4992471;28;21216;-69
2023/11/24 09:44:15;;;;;;;5.80;1.58;;;8.00;99.90;;;;;;4992652;28;20390;-69
2023/11/24 09:46:43;;;;;;;4.50;1.10;;;8.10;94.50;;;;;;4992607;28;20402;-69
2023/11/24 09:49:09;;;;;;;4.45;0.90;;;8.00;1.00;;;;;;4992813;28;20446;-69
2023/11/24 09:51:38;;;;;;;9.80;1.30;;;8.10;1.00;;;;;;4992240;28;20402;-69
2023/11/24 09:54:05;;;;;;;6.97;0.90;;;8.00;1.00;;;;;;4992493;28;20398;-69
2023/11/24 09:56:31;;;;;;;6.40;1.30;;;8.10;1.00;;;;;;4992312;28;20395;-69
2023/11/24 09:58:57;;;;;;;5.93;1.25;;;8.20;1.00;;;;;;4992410;28;20398;-69
2023/11/24 10:01:23;;;;;;;7.13;1.20;;;8.20;1.00;;;;;;4992268;28;20773;-69
2023/11/24 10:03:52;;;;;;;8.30;1.40;;;8.30;1.00;;;;;;4992251;28;20431;-69
2023/11/24 10:06:18;;;;;;;9.32;1.60;;;8.20;1.00;;;;;;4992629;28;20405;-69
2023/11/24 10:08:47;;;;;;;4.65;0.80;;;8.10;1.00;;;;;;4991959;28;20456;-69
2023/11/24 10:11:27;;;;;;;7.20;1.42;;;8.20;1.00;;;;;;4991992;28;20410;-69
2023/11/24 10:13:54;;;;;;;4.43;0.82;;;8.30;1.00;;;;;;4991666;28;20399;-69
2023/11/24 10:16:22;;;;;;;7.45;1.20;;;8.50;1.00;;;;;;4991889;28;20408;-67
2023/11/24 10:18:47;;;;;;;4.80;0.90;;;9.10;1.00;;;;;;4992406;28;20760;-67
2023/11/24 10:21:13;;;;;;;5.67;0.73;;;9.10;1.00;;;;;;4991838;28;20419;-67
2023/11/24 10:23:39;;;;;;;7.10;0.80;;;8.80;1.00;;;;;;4991971;28;20432;-67
2023/11/24 10:26:15;;;;;;;7.60;0.80;;;8.20;1.00;;;;;;4991994;28;20497;-68
2023/11/24 10:28:45;;;;;;;7.35;1.20;;;7.90;1.00;;;;;;4991792;28;20444;-68
2023/11/24 10:31:13;;;;;;;6.03;1.00;;;7.80;1.00;;;;;;4991554;28;20403;-68
2023/11/24 10:33:39;;;;;;;11.45;1.02;;;7.80;1.00;;;;;;4991687;28;20415;-68
2023/11/24 10:36:05;;;;;;;9.13;2.80;;;7.90;1.00;;;;;;4991403;28;20391;-68
2023/11/24 10:38:32;;;;;;;4.78;0.80;;;7.90;1.00;;;;;;4991399;28;20400;-68
2023/11/24 10:41:00;;;;;;;5.70;0.98;;;7.90;1.00;;;;;;4991080;28;20429;-68
2023/11/24 10:43:31;;;;;;;4.50;0.88;;;7.90;1.00;;;;;;4991385;28;20399;-68
2023/11/24 10:46:01;;;;;;;6.10;1.40;;;7.80;1.00;;;;;;4991391;28;20422;-68
2023/11/24 10:48:33;;;;;;;7.90;1.52;;;7.80;1.00;;;;;;4991766;28;20486;-68
2023/11/24 10:51:04;;;;;;;4.05;0.70;;;7.90;1.00;;;;;;4991242;28;20485;-68
2023/11/24 10:53:40;;;;;;;4.10;0.88;;;7.90;1.00;;;;;;4991301;28;20485;-68
2023/11/24 10:56:08;;;;;;;5.60;1.10;;;7.90;1.00;;;;;;4991166;28;20394;-68
2023/11/24 10:58:33;;;;;;;4.90;1.70;;;7.90;1.00;;;;;;4990865;28;20401;-68
2023/11/24 11:01:02;;;;;;;6.40;1.33;;;7.90;1.00;;;;;;4991095;28;20415;-68
2023/11/24 11:03:29;;;;;;;5.20;1.08;;;8.00;1.00;;;;;;4991175;28;20476;-68
2023/11/24 11:06:29;;;;;;;9.80;1.92;;;8.10;1.00;;;;;;4990689;28;20394;-68
2023/11/24 11:09:19;;;;;;;7.03;1.15;;;8.00;1.00;;;;;;4980577;28;20426;-68
2023/11/24 11:12:13;;;;;;;5.55;1.10;;;8.00;1.00;;;;;;4990861;28;20456;-68
2023/11/24 11:14:42;;;;;;;4.55;0.75;;;8.10;1.00;;;;;;4991244;28;20390;-68
2023/11/24 11:17:18;;;;;;;6.20;1.42;;;8.10;1.00;;;;;;4990767;28;20402;-68
2023/11/24 11:20:00;;;;;;;7.07;1.10;;;8.10;1.00;;;;;;4991029;28;20422;-68
2023/11/24 11:22:33;;;;;;;6.60;0.90;;;8.10;1.00;;;;;;4990676;28;20430;-68
2023/11/24 11:25:21;;;;;;;10.63;1.25;;;8.20;1.00;;;;;;4990766;28;20477;-68
2023/11/24 11:27:47;;;;;;;6.03;1.90;;;8.10;1.00;;;;;;4990609;28;20398;-68
2023/11/24 11:30:15;;;;;;;5.32;1.40;;;8.00;1.00;;;;;;4990800;28;20422;-68
2023/11/24 11:32:42;;;;;;;6.30;1.60;;;7.90;1.00;;;;;;4991147;28;20915;-68
2023/11/24 11:35:10;;;;;;;3.70;0.70;;;8.00;1.00;;;;;;4993759;28;20390;-67
2023/11/24 11:37:36;;;;;;;5.00;1.25;;;7.90;1.00;;;;;;4992793;28;20399;-69
2023/11/24 11:40:12;;;;;;;5.17;0.73;;;7.90;1.00;;;;;;4993678;28;20984;-69
2023/11/24 11:42:52;;;;;;;6.10;0.70;;;7.80;1.00;;;;;;4990479;28;20395;-68
2023/11/24 11:45:20;;;;;;;5.40;0.60;;;7.70;1.00;;;;;;4991182;28;20454;-68
2023/11/24 11:47:50;;;;;;;6.43;0.80;;;7.60;1.00;;;;;;4990633;28;20820;-68
2023/11/24 11:50:24;;;;;;;8.10;0.98;;;7.60;1.00;;;;;;4991025;28;20398;-69
2023/11/24 11:52:50;;;;;;;4.78;1.60;;;7.60;1.00;;;;;;4990396;28;20893;-69
2023/11/24 11:55:20;;;;;;;4.10;0.60;;;7.60;1.00;;;;;;4990394;28;20449;-69
2023/11/24 11:57:57;;;;;;;13.05;1.40;;;7.50;1.00;;;;;;4990846;28;20433;-67
2023/11/24 12:00:29;;;;;;;5.10;1.40;;;7.50;1.00;;;;;;4989709;28;20429;-68
2023/11/24 12:02:56;;;;;;;3.90;0.50;;;7.50;1.00;;;;;;4990354;28;20398;-68
2023/11/24 12:05:22;;;;;;;6.30;1.00;;;7.50;1.00;;;;;;4989965;28;20390;-68
2023/11/24 12:07:53;;;;;;;6.83;0.97;;;7.60;1.00;;;;;;4990366;28;20452;-68
2023/11/24 12:10:20;;;;;;;4.18;0.70;;;7.50;1.00;;;;;;4990817;28;20484;-68
2023/11/24 12:12:46;;;;;;;5.60;1.60;;;7.40;1.00;;;;;;4990154;28;20441;-68
2023/11/24 12:15:17;;;;;;;3.97;0.60;;;7.50;1.00;;;;;;4990010;28;20426;-68
2023/11/24 12:17:44;;;;;;;5.30;0.90;;;7.40;1.00;;;;;;4991168;28;20407;-68
2023/11/24 12:20:14;;;;;;;7.40;0.63;;;7.40;1.00;;;;;;5000912;28;20434;-69
2023/11/24 12:22:41;;;;;;;7.68;1.23;;;7.40;1.00;;;;;;4989912;28;20448;-68
2023/11/24 12:25:10;;;;;;;4.70;0.82;;;7.40;1.00;;;;;;4993138;28;20398;-68
2023/11/24 12:27:36;;;;;;;4.22;0.70;;;7.30;1.00;;;;;;5008339;28;20487;-68
2023/11/24 12:30:04;;;;;;;5.07;1.27;;;7.30;1.00;;;;;;5004158;28;20386;-69
2023/11/24 12:32:32;;;;;;;4.53;1.02;;;7.30;1.00;;;;;;4989999;28;20394;-69
2023/11/24 12:34:59;;;;;;;4.22;0.63;;;7.40;1.00;;;;;;5002092;28;20893;-69
2023/11/24 12:37:26;;;;;;;7.85;1.30;;;7.40;1.00;;;;;;4989819;28;20406;-69
2023/11/24 12:39:52;;;;;;;4.28;0.70;;;7.50;1.00;;;;;;4989447;28;20423;-69
2023/11/24 12:42:18;;;;;;;3.80;0.70;;;7.50;1.00;;;;;;4990322;28;20897;-69
2023/11/24 12:44:43;;;;;;;4.30;0.80;;;7.50;1.00;;;;;;4989700;28;20857;-69
2023/11/24 12:47:13;;;;;;;4.00;0.77;;;7.50;1.00;;;;;;4989634;28;20505;-69
2023/11/24 12:49:59;;;;;;;4.70;0.80;;;7.40;1.00;;;;;;4989855;28;20869;-69
2023/11/24 12:52:25;;;;;;;5.60;0.70;;;7.30;1.00;;;;;;4989705;28;20414;-69
2023/11/24 12:54:51;;;;;;;4.32;0.77;;;7.20;1.00;;;;;;4989476;28;20510;-69
2023/11/24 12:57:16;;;;;;;3.60;0.40;;;7.10;1.00;;;;;;4990026;28;20738;-69
2023/11/24 12:59:42;;;;;;;4.00;0.70;;;6.90;1.00;;;;;;4989925;28;20426;-67
2023/11/24 13:02:09;;;;;;;4.57;0.57;;;6.80;1.00;;;;;;4989780;28;20469;-68